createdAt,value
2024-03-05T00:00:28.775Z,176.59
2024-03-05T00:01:28.902Z,175.32
2024-03-05T00:02:28.921Z,176.69
2024-03-05T00:03:29.041Z,175.55
2024-03-05T00:04:29.094Z,176.52
2024-03-05T00:05:29.104Z,175.39
2024-03-05T00:06:29.190Z,175.30
2024-03-05T00:07:29.278Z,176.52
2024-03-05T00:08:29.355Z,175.86
2024-03-05T00:09:29.398Z,174.64
2024-03-05T00:10:29.544Z,176.06
2024-03-05T00:11:29.789Z,175.00
2024-03-05T00:12:29.617Z,176.17
2024-03-05T00:13:29.737Z,173.92
2024-03-05T00:14:29.757Z,174.40
2024-03-05T00:15:29.823Z,175.02
2024-03-05T00:16:29.938Z,175.28
2024-03-05T00:17:29.975Z,175.49
2024-03-05T00:18:30.037Z,174.11
2024-03-05T00:19:30.107Z,174.80
2024-03-05T00:20:30.179Z,174.53
2024-03-05T00:21:30.262Z,174.86
2024-03-05T00:22:30.377Z,174.14
2024-03-05T00:23:30.385Z,174.98
2024-03-05T00:24:30.473Z,173.23
2024-03-05T00:25:30.562Z,172.79
2024-03-05T00:26:30.608Z,172.80
2024-03-05T00:27:30.692Z,172.68
2024-03-05T00:28:30.784Z,173.18
2024-03-05T00:29:30.814Z,173.05
2024-03-05T00:30:30.894Z,173.42
2024-03-05T00:31:30.980Z,173.31
2024-03-05T00:32:31.051Z,171.93
2024-03-05T00:33:31.087Z,172.59
2024-03-05T00:34:31.157Z,173.27
2024-03-05T00:35:31.214Z,172.18
2024-03-05T00:36:31.269Z,172.87
2024-03-05T00:37:31.356Z,173.28
2024-03-05T00:38:33.767Z,172.77
2024-03-05T00:39:31.421Z,172.81
2024-03-05T00:40:31.441Z,172.51
2024-03-05T00:41:31.428Z,172.97
2024-03-05T00:42:31.424Z,172.94
2024-03-05T00:43:31.500Z,173.05
2024-03-05T00:44:31.483Z,172.98
2024-03-05T00:45:31.432Z,172.20
2024-03-05T00:46:31.452Z,174.13
2024-03-05T00:47:31.467Z,172.86
2024-03-05T00:48:31.430Z,172.08
2024-03-05T00:49:31.479Z,172.13
2024-03-05T00:50:31.445Z,171.14
2024-03-05T00:51:31.449Z,170.64
2024-03-05T00:52:31.458Z,171.52
2024-03-05T00:53:31.458Z,169.96
2024-03-05T00:54:31.443Z,170.13
2024-03-05T00:55:31.459Z,170.09
2024-03-05T00:56:31.447Z,168.60
2024-03-05T00:57:31.460Z,169.57
2024-03-05T00:58:31.489Z,171.22
2024-03-05T00:59:31.457Z,170.66
2024-03-05T01:00:31.453Z,170.19
2024-03-05T01:01:31.504Z,170.26
2024-03-05T01:02:31.506Z,168.38
2024-03-05T01:03:31.470Z,170.07
2024-03-05T01:04:31.484Z,170.21
2024-03-05T01:05:31.484Z,169.01
2024-03-05T01:06:31.479Z,168.86
2024-03-05T01:07:31.504Z,169.39
2024-03-05T01:08:31.465Z,168.38
2024-03-05T01:09:31.469Z,168.34
2024-03-05T01:10:31.548Z,168.45
2024-03-05T01:11:31.565Z,170.18
2024-03-05T01:12:31.467Z,170.47
2024-03-05T01:13:31.524Z,169.79
2024-03-05T01:14:31.473Z,168.33
2024-03-05T01:15:31.480Z,168.58
2024-03-05T01:16:31.550Z,168.23
2024-03-05T01:17:31.522Z,168.16
2024-03-05T01:18:31.475Z,168.39
2024-03-05T01:19:31.534Z,168.03
2024-03-05T01:20:31.493Z,167.96
2024-03-05T01:21:31.493Z,169.30
2024-03-05T01:22:31.606Z,169.35
2024-03-05T01:23:31.489Z,168.61
2024-03-05T01:24:31.494Z,168.57
2024-03-05T01:25:31.503Z,169.25
2024-03-05T01:26:31.482Z,168.64
2024-03-05T01:27:31.491Z,168.54
2024-03-05T01:28:31.563Z,166.96
2024-03-05T01:29:31.550Z,167.99
2024-03-05T01:30:31.483Z,167.42
2024-03-05T01:31:31.550Z,167.73
2024-03-05T01:32:31.564Z,168.15
2024-03-05T01:33:31.547Z,167.76
2024-03-05T01:34:31.522Z,167.30
2024-03-05T01:35:31.491Z,168.03
2024-03-05T01:36:31.485Z,169.58
2024-03-05T01:37:31.530Z,167.53
2024-03-05T01:38:31.539Z,168.55
2024-03-05T01:39:31.508Z,168.55
2024-03-05T01:40:31.571Z,166.71
2024-03-05T01:41:31.498Z,167.99
2024-03-05T01:42:31.494Z,167.15
2024-03-05T01:43:31.611Z,168.04
2024-03-05T01:44:31.579Z,168.64
2024-03-05T01:45:31.649Z,167.61
2024-03-05T01:46:31.720Z,167.72
2024-03-05T01:47:31.783Z,167.36
2024-03-05T01:48:31.836Z,167.41
2024-03-05T01:49:31.920Z,167.92
2024-03-05T01:50:31.980Z,166.78
2024-03-05T01:51:32.038Z,167.15
2024-03-05T01:52:32.116Z,167.39
2024-03-05T01:53:32.170Z,166.80
2024-03-05T01:54:32.245Z,167.89
2024-03-05T01:55:32.353Z,166.67
2024-03-05T01:56:32.393Z,168.19
2024-03-05T01:57:32.458Z,168.15
2024-03-05T01:58:32.527Z,167.91
2024-03-05T01:59:32.596Z,167.64
2024-03-05T02:00:32.731Z,166.22
2024-03-05T02:01:32.823Z,167.94
2024-03-05T02:02:32.785Z,166.57
2024-03-05T02:03:32.864Z,166.75
2024-03-05T02:04:33.051Z,165.98
2024-03-05T02:05:33.005Z,166.15
2024-03-05T02:06:33.057Z,165.79
2024-03-05T02:07:33.164Z,165.84
2024-03-05T02:08:33.192Z,165.33
2024-03-05T02:09:33.255Z,166.24
2024-03-05T02:10:33.353Z,165.83
2024-03-05T02:11:33.798Z,166.05
2024-03-05T02:12:33.468Z,166.44
2024-03-05T02:13:33.544Z,165.68
2024-03-05T02:14:33.616Z,165.48
2024-03-05T02:15:33.717Z,166.50
2024-03-05T02:16:33.751Z,166.15
2024-03-05T02:17:38.836Z,165.48
2024-03-05T02:18:33.813Z,165.51
2024-03-05T02:19:33.841Z,165.58
2024-03-05T02:20:33.859Z,165.78
2024-03-05T02:21:33.804Z,165.82
2024-03-05T02:22:33.894Z,166.21
2024-03-05T02:23:33.801Z,165.89
2024-03-05T02:24:33.822Z,164.94
2024-03-05T02:25:34.052Z,166.30
2024-03-05T02:26:33.956Z,166.22
2024-03-05T02:27:35.253Z,165.35
2024-03-05T02:28:34.117Z,165.04
2024-03-05T02:29:34.211Z,165.35
2024-03-05T02:30:34.206Z,165.68
2024-03-05T02:31:34.329Z,165.05
2024-03-05T02:32:34.347Z,165.11
2024-03-05T02:33:34.408Z,164.76
2024-03-05T02:34:34.506Z,164.52
2024-03-05T02:35:34.538Z,164.08
2024-03-05T02:36:34.584Z,164.30
2024-03-05T02:37:34.691Z,163.77
2024-03-05T02:38:34.699Z,165.89
2024-03-05T02:39:34.775Z,162.61
2024-03-05T02:40:34.850Z,164.86
2024-03-05T02:41:34.912Z,165.02
2024-03-05T02:42:34.980Z,163.17
2024-03-05T02:43:35.114Z,165.05
2024-03-05T02:44:35.103Z,163.71
2024-03-05T02:45:35.175Z,164.47
2024-03-05T02:46:35.293Z,164.73
2024-03-05T02:47:35.325Z,163.88
2024-03-05T02:48:35.347Z,163.73
2024-03-05T02:49:35.522Z,162.91
2024-03-05T02:50:35.479Z,163.25
2024-03-05T02:51:35.558Z,163.47
2024-03-05T02:52:35.630Z,163.87
2024-03-05T02:53:35.694Z,163.65
2024-03-05T02:54:35.734Z,163.41
2024-03-05T02:55:35.856Z,163.64
2024-03-05T02:56:35.877Z,163.52
2024-03-05T02:57:35.949Z,164.02
2024-03-05T02:58:36.038Z,163.00
2024-03-05T02:59:36.159Z,163.37
2024-03-05T03:00:36.187Z,164.36
2024-03-05T03:01:36.258Z,163.17
2024-03-05T03:02:36.285Z,163.15
2024-03-05T03:03:36.410Z,162.78
2024-03-05T03:04:36.437Z,163.11
2024-03-05T03:05:36.472Z,163.73
2024-03-05T03:06:36.521Z,164.43
2024-03-05T03:07:36.665Z,163.91
2024-03-05T03:08:36.667Z,163.99
2024-03-05T03:09:36.735Z,162.26
2024-03-05T03:10:36.815Z,162.60
2024-03-05T03:11:36.883Z,163.13
2024-03-05T03:12:36.925Z,162.56
2024-03-05T03:13:37.017Z,162.36
2024-03-05T03:14:37.070Z,163.23
2024-03-05T03:15:37.129Z,162.15
2024-03-05T03:16:37.233Z,162.58
2024-03-05T03:17:37.297Z,162.43
2024-03-05T03:18:37.329Z,163.49
2024-03-05T03:19:37.445Z,161.61
2024-03-05T03:20:37.460Z,161.49
2024-03-05T03:21:37.529Z,162.32
2024-03-05T03:22:37.646Z,162.08
2024-03-05T03:23:37.644Z,161.76
2024-03-05T03:24:37.718Z,161.95
2024-03-05T03:25:38.162Z,161.19
2024-03-05T03:26:37.765Z,161.72
2024-03-05T03:27:37.782Z,161.77
2024-03-05T03:28:37.786Z,162.04
2024-03-05T03:29:37.775Z,161.38
2024-03-05T03:30:37.776Z,161.93
2024-03-05T03:31:37.802Z,161.02
2024-03-05T03:32:37.804Z,161.89
2024-03-05T03:33:37.781Z,160.77
2024-03-05T03:34:37.796Z,161.39
2024-03-05T03:35:37.789Z,161.59
2024-03-05T03:36:37.779Z,160.88
2024-03-05T03:37:37.881Z,160.98
2024-03-05T03:38:37.783Z,161.86
2024-03-05T03:39:37.789Z,161.20
2024-03-05T03:40:37.812Z,161.09
2024-03-05T03:41:37.800Z,160.94
2024-03-05T03:42:37.816Z,160.34
2024-03-05T03:43:37.829Z,162.24
2024-03-05T03:44:37.788Z,160.90
2024-03-05T03:45:37.798Z,161.21
2024-03-05T03:46:37.833Z,160.39
2024-03-05T03:47:37.826Z,161.31
2024-03-05T03:48:37.805Z,160.23
2024-03-05T03:49:37.819Z,160.71
2024-03-05T03:50:37.801Z,161.41
2024-03-05T03:51:37.808Z,161.18
2024-03-05T03:52:37.840Z,161.24
2024-03-05T03:53:37.854Z,160.88
2024-03-05T03:54:37.814Z,161.77
2024-03-05T03:55:37.886Z,160.86
2024-03-05T03:56:37.808Z,160.48
2024-03-05T03:57:37.817Z,161.89
2024-03-05T03:58:37.841Z,161.50
2024-03-05T03:59:37.834Z,160.82
2024-03-05T04:00:37.858Z,160.13
2024-03-05T04:01:37.912Z,160.72
2024-03-05T04:02:37.878Z,159.45
2024-03-05T04:03:37.828Z,160.34
2024-03-05T04:04:37.873Z,161.07
2024-03-05T04:05:37.827Z,160.35
2024-03-05T04:06:37.822Z,160.57
2024-03-05T04:07:37.896Z,160.37
2024-03-05T04:08:37.875Z,161.40
2024-03-05T04:09:37.937Z,160.11
2024-03-05T04:10:38.022Z,159.95
2024-03-05T04:11:38.069Z,159.30
2024-03-05T04:12:38.082Z,160.97
2024-03-05T04:13:38.189Z,160.11
2024-03-05T04:14:38.204Z,159.54
2024-03-05T04:15:38.270Z,159.72
2024-03-05T04:16:38.358Z,160.44
2024-03-05T04:17:38.622Z,160.28
2024-03-05T04:18:38.430Z,157.96
2024-03-05T04:19:38.509Z,160.41
2024-03-05T04:20:38.562Z,159.68
2024-03-05T04:21:38.608Z,159.38
2024-03-05T04:22:38.676Z,159.27
2024-03-05T04:23:38.709Z,159.08
2024-03-05T04:24:38.767Z,159.64
2024-03-05T04:25:38.825Z,158.19
2024-03-05T04:26:38.917Z,159.25
2024-03-05T04:27:38.931Z,159.51
2024-03-05T04:28:38.993Z,157.73
2024-03-05T04:29:39.017Z,157.57
2024-03-05T04:30:39.083Z,158.66
2024-03-05T04:31:47.019Z,158.66
2024-03-05T04:32:40.174Z,158.51
2024-03-05T04:33:47.391Z,50.00
2024-03-05T04:34:47.402Z,50.00
2024-03-05T04:35:47.377Z,50.00
2024-03-05T04:36:47.376Z,50.00
2024-03-05T04:37:47.442Z,50.00
2024-03-05T04:38:47.360Z,51.30
2024-03-05T04:39:47.368Z,53.28
2024-03-05T04:40:47.397Z,51.65
2024-03-05T04:41:47.393Z,51.90
2024-03-05T04:42:47.379Z,51.35
2024-03-05T04:43:47.458Z,51.02
2024-03-05T04:44:47.401Z,50.01
2024-03-05T04:45:47.370Z,50.00
2024-03-05T04:46:47.429Z,51.28
2024-03-05T04:47:47.406Z,51.14
2024-03-05T04:48:47.391Z,52.76
2024-03-05T04:49:47.404Z,51.93
2024-03-05T04:50:47.379Z,51.38
2024-03-05T04:51:47.380Z,53.16
2024-03-05T04:52:51.788Z,54.28
2024-03-05T04:53:47.391Z,54.30
2024-03-05T04:54:47.407Z,53.87
2024-03-05T04:55:47.401Z,53.78
2024-03-05T04:56:47.384Z,52.52
2024-03-05T04:57:47.425Z,51.98
2024-03-05T04:58:47.437Z,53.40
2024-03-05T04:59:49.258Z,52.48
2024-03-05T05:00:47.427Z,52.05
2024-03-05T05:01:47.432Z,52.59
2024-03-05T05:02:47.398Z,51.30
2024-03-05T05:03:47.390Z,52.64
2024-03-05T05:04:47.407Z,51.06
2024-03-05T05:05:47.392Z,50.93
2024-03-05T05:06:47.402Z,52.32
2024-03-05T05:07:47.420Z,52.71
2024-03-05T05:08:47.399Z,50.75
2024-03-05T05:09:47.400Z,50.90
2024-03-05T05:10:47.481Z,51.51
2024-03-05T05:11:47.439Z,52.03
2024-03-05T05:12:57.433Z,51.51
2024-03-05T05:13:47.438Z,51.67
2024-03-05T05:14:48.428Z,51.71
2024-03-05T05:15:47.436Z,52.10
2024-03-05T05:16:47.464Z,52.60
2024-03-05T05:17:47.453Z,52.51
2024-03-05T05:18:47.405Z,53.85
2024-03-05T05:19:47.444Z,54.70
2024-03-05T05:20:47.407Z,52.67
2024-03-05T05:21:47.409Z,53.22
2024-03-05T05:22:47.488Z,52.08
2024-03-05T05:23:47.450Z,51.68
2024-03-05T05:24:47.425Z,52.22
2024-03-05T05:25:47.494Z,51.22
2024-03-05T05:26:47.487Z,51.08
2024-03-05T05:27:47.515Z,53.00
2024-03-05T05:28:47.603Z,50.35
2024-03-05T05:29:48.783Z,50.40
2024-03-05T05:30:47.641Z,52.60
2024-03-05T05:31:47.642Z,52.06
2024-03-05T05:32:52.696Z,52.18
2024-03-05T05:33:47.635Z,52.26
2024-03-05T05:34:47.674Z,52.23
2024-03-05T05:35:47.638Z,52.48
2024-03-05T05:36:47.628Z,52.16
2024-03-05T05:37:47.683Z,50.81
2024-03-05T05:38:47.640Z,52.80
2024-03-05T05:39:47.632Z,53.15
2024-03-05T05:40:47.739Z,51.01
2024-03-05T05:41:47.708Z,50.67
2024-03-05T05:42:47.770Z,51.81
2024-03-05T05:43:47.892Z,51.27
2024-03-05T05:44:47.879Z,51.90
2024-03-05T05:45:47.934Z,51.80
2024-03-05T05:46:48.135Z,51.96
2024-03-05T05:47:48.193Z,50.00
2024-03-05T05:48:48.152Z,52.03
2024-03-05T05:49:48.183Z,52.79
2024-03-05T05:50:48.212Z,53.35
2024-03-05T05:51:48.259Z,52.40
2024-03-05T05:52:53.365Z,51.12
2024-03-05T05:53:48.301Z,51.16
2024-03-05T05:54:48.305Z,51.45
2024-03-05T05:55:48.347Z,51.57
2024-03-05T05:56:53.370Z,51.15
2024-03-05T05:57:48.305Z,51.22
2024-03-05T05:58:48.349Z,51.17
2024-03-05T05:59:48.300Z,51.46
2024-03-05T06:00:48.320Z,51.28
2024-03-05T06:01:48.405Z,52.76
2024-03-05T06:02:48.333Z,54.47
2024-03-05T06:03:48.306Z,53.81
2024-03-05T06:04:48.363Z,51.85
2024-03-05T06:05:48.424Z,52.76
2024-03-05T06:06:48.463Z,52.79
2024-03-05T06:07:48.548Z,52.46
2024-03-05T06:08:48.594Z,50.73
2024-03-05T06:09:48.633Z,52.07
2024-03-05T06:10:48.749Z,52.38
2024-03-05T06:11:48.815Z,51.96
2024-03-05T06:12:48.857Z,52.54
2024-03-05T06:13:48.933Z,53.13
2024-03-05T06:14:48.948Z,52.65
2024-03-05T06:15:48.995Z,51.82
2024-03-05T06:16:49.109Z,51.75
2024-03-05T06:17:49.138Z,52.03
2024-03-05T06:18:49.182Z,53.31
2024-03-05T06:19:49.294Z,52.88
2024-03-05T06:20:49.311Z,53.71
2024-03-05T06:21:49.341Z,52.32
2024-03-05T06:22:49.445Z,54.14
2024-03-05T06:23:49.454Z,51.44
2024-03-05T06:24:49.528Z,52.22
2024-03-05T06:25:49.633Z,50.00
2024-03-05T06:26:49.623Z,52.35
2024-03-05T06:27:49.703Z,52.90
2024-03-05T06:28:49.867Z,52.26
2024-03-05T06:29:49.783Z,52.79
2024-03-05T06:30:49.839Z,54.05
2024-03-05T06:31:49.952Z,53.72
2024-03-05T06:32:50.049Z,52.91
2024-03-05T06:33:50.006Z,51.64
2024-03-05T06:34:50.055Z,52.88
2024-03-05T06:35:50.101Z,52.50
2024-03-05T06:36:50.141Z,50.83
2024-03-05T06:37:50.256Z,52.70
2024-03-05T06:38:50.249Z,52.06
2024-03-05T06:39:50.377Z,52.01
2024-03-05T06:40:50.381Z,51.27
2024-03-05T06:41:50.428Z,52.51
2024-03-05T06:42:50.402Z,52.11
2024-03-05T06:43:50.493Z,54.25
2024-03-05T06:44:50.485Z,51.71
2024-03-05T06:45:50.527Z,53.56
2024-03-05T06:46:50.635Z,52.68
2024-03-05T06:47:54.326Z,52.87
2024-03-05T06:48:50.712Z,52.87
2024-03-05T06:49:50.654Z,51.51
2024-03-05T06:50:50.623Z,51.66
2024-03-05T06:51:50.607Z,51.09
2024-03-05T06:52:50.644Z,51.79
2024-03-05T06:53:50.665Z,51.96
2024-03-05T06:54:50.610Z,50.34
2024-03-05T06:55:50.660Z,52.72
2024-03-05T06:56:50.613Z,51.69
2024-03-05T06:57:50.606Z,54.31
2024-03-05T06:58:50.663Z,52.86
2024-03-05T06:59:50.612Z,52.83
2024-03-05T07:00:50.629Z,51.43
2024-03-05T07:01:50.640Z,52.80
2024-03-05T07:02:50.631Z,53.58
2024-03-05T07:03:50.638Z,51.21
2024-03-05T07:04:50.738Z,51.04
2024-03-05T07:05:50.643Z,52.71
2024-03-05T07:06:50.642Z,51.54
2024-03-05T07:07:50.694Z,51.90
2024-03-05T07:08:50.673Z,50.75
2024-03-05T07:09:50.616Z,51.91
2024-03-05T07:10:50.719Z,50.00
2024-03-05T07:11:50.690Z,50.00
2024-03-05T07:12:50.641Z,52.35
2024-03-05T07:14:50.703Z,52.12
2024-03-05T07:15:50.650Z,52.75
2024-03-05T07:16:50.716Z,55.07
2024-03-05T07:17:50.837Z,53.74
2024-03-05T07:18:50.694Z,54.96
2024-03-05T07:19:50.668Z,55.95
2024-03-05T07:20:50.649Z,55.99
2024-03-05T07:21:50.634Z,56.02
2024-03-05T07:22:50.658Z,58.27
2024-03-05T07:23:50.655Z,60.52
2024-03-05T07:24:50.678Z,60.38
2024-03-05T07:25:50.782Z,60.95
2024-03-05T07:26:56.968Z,60.59
2024-03-05T07:27:51.650Z,60.70
2024-03-05T07:28:51.037Z,60.64
2024-03-05T07:29:50.648Z,62.15
2024-03-05T07:30:50.655Z,63.19
2024-03-05T07:31:50.684Z,64.10
2024-03-05T07:32:50.747Z,66.77
2024-03-05T07:33:53.376Z,66.07
2024-03-05T07:34:50.715Z,69.73
2024-03-05T07:35:50.655Z,68.28
2024-03-05T07:36:50.667Z,68.23
2024-03-05T07:37:50.712Z,63.68
2024-03-05T07:38:50.943Z,70.06
2024-03-05T07:39:50.671Z,65.94
2024-03-05T07:40:50.740Z,69.71
2024-03-05T07:41:50.660Z,69.61
2024-03-05T07:42:50.661Z,69.62
2024-03-05T07:43:50.701Z,64.70
2024-03-05T07:44:50.686Z,70.73
2024-03-05T07:45:51.135Z,68.52
2024-03-05T07:46:50.813Z,67.66
2024-03-05T07:47:50.831Z,70.40
2024-03-05T07:48:50.750Z,67.98
2024-03-05T07:49:50.772Z,70.00
2024-03-05T07:50:50.682Z,68.37
2024-03-05T07:51:50.677Z,72.55
2024-03-05T07:52:50.692Z,67.34
2024-03-05T07:53:50.677Z,72.14
2024-03-05T07:54:50.675Z,70.46
2024-03-05T07:55:50.800Z,72.19
2024-03-05T07:56:50.686Z,67.21
2024-03-05T07:57:50.671Z,73.01
2024-03-05T07:58:50.794Z,74.42
2024-03-05T07:59:53.596Z,71.14
2024-03-05T08:00:50.707Z,71.21
2024-03-05T08:01:50.716Z,71.50
2024-03-05T08:02:50.672Z,73.05
2024-03-05T08:03:50.667Z,73.95
2024-03-05T08:04:50.714Z,75.29
2024-03-05T08:05:50.677Z,75.16
2024-03-05T08:06:50.683Z,73.46
2024-03-05T08:07:50.728Z,70.23
2024-03-05T08:08:50.677Z,71.48
2024-03-05T08:09:50.667Z,69.62
2024-03-05T08:10:50.801Z,73.53
2024-03-05T08:11:50.691Z,74.24
2024-03-05T08:12:50.766Z,70.93
2024-03-05T08:13:50.724Z,67.13
2024-03-05T08:14:50.681Z,68.01
2024-03-05T08:15:50.675Z,68.92
2024-03-05T08:16:50.731Z,62.21
2024-03-05T08:17:50.704Z,64.86
2024-03-05T08:18:50.776Z,64.78
2024-03-05T08:19:50.777Z,70.71
2024-03-05T08:20:50.689Z,63.44
2024-03-05T08:21:50.687Z,65.61
2024-03-05T08:22:50.706Z,60.15
2024-03-05T08:23:50.694Z,63.67
2024-03-05T08:24:50.705Z,64.29
2024-03-05T08:25:50.738Z,62.27
2024-03-05T08:26:50.720Z,65.13
2024-03-05T08:27:50.699Z,62.57
2024-03-05T08:28:50.743Z,60.75
2024-03-05T08:29:50.705Z,59.62
2024-03-05T08:30:50.728Z,56.73
2024-03-05T08:31:50.750Z,61.42
2024-03-05T08:32:50.730Z,57.81
2024-03-05T08:33:50.714Z,58.42
2024-03-05T08:34:50.739Z,59.92
2024-03-05T08:35:50.739Z,53.97
2024-03-05T08:36:50.714Z,53.12
2024-03-05T08:37:50.770Z,59.33
2024-03-05T08:38:50.725Z,52.14
2024-03-05T08:39:50.957Z,57.06
2024-03-05T08:40:50.771Z,57.12
2024-03-05T08:41:50.708Z,57.55
2024-03-05T08:42:50.713Z,53.36
2024-03-05T08:43:50.780Z,57.32
2024-03-05T08:44:50.728Z,53.06
2024-03-05T08:45:50.732Z,57.50
2024-03-05T08:46:50.773Z,55.00
2024-03-05T08:47:50.874Z,58.08
2024-03-05T08:48:50.963Z,52.83
2024-03-05T08:49:50.835Z,54.89
2024-03-05T08:50:50.813Z,55.76
2024-03-05T08:51:50.745Z,56.51
2024-03-05T08:52:50.864Z,50.81
2024-03-05T08:53:50.759Z,50.66
2024-03-05T08:54:50.759Z,55.79
2024-03-05T08:55:50.759Z,50.08
2024-03-05T08:56:50.761Z,49.38
2024-03-05T08:57:50.747Z,54.84
2024-03-05T08:58:50.786Z,52.61
2024-03-05T08:59:50.747Z,52.67
2024-03-05T09:00:50.768Z,51.70
2024-03-05T09:01:50.794Z,50.94
2024-03-05T09:02:50.761Z,49.07
2024-03-05T09:03:50.799Z,52.88
2024-03-05T09:04:50.843Z,57.70
2024-03-05T09:05:50.789Z,54.43
2024-03-05T09:06:50.783Z,56.63
2024-03-05T09:07:50.908Z,51.71
2024-03-05T09:08:50.862Z,61.35
2024-03-05T09:09:50.858Z,59.79
2024-03-05T09:10:50.894Z,58.63
2024-03-05T09:11:50.931Z,53.99
2024-03-05T09:12:50.927Z,56.08
2024-03-05T09:13:51.020Z,60.02
2024-03-05T09:14:51.021Z,53.12
2024-03-05T09:15:51.104Z,54.23
2024-03-05T09:16:51.161Z,55.75
2024-03-05T09:17:51.243Z,57.37
2024-03-05T09:18:51.268Z,51.28
2024-03-05T09:19:51.329Z,53.94
2024-03-05T09:20:51.382Z,57.24
2024-03-05T09:21:51.531Z,54.51
2024-03-05T09:22:51.575Z,54.46
2024-03-05T09:23:51.616Z,60.97
2024-03-05T09:24:51.751Z,58.21
2024-03-05T09:25:51.760Z,50.28
2024-03-05T09:26:51.788Z,50.00
2024-03-05T09:27:51.872Z,58.53
2024-03-05T09:28:51.965Z,57.29
2024-03-05T09:29:52.018Z,61.60
2024-03-05T09:30:52.065Z,53.18
2024-03-05T09:31:52.156Z,61.70
2024-03-05T09:32:52.233Z,61.96
2024-03-05T09:33:52.287Z,54.10
2024-03-05T09:34:52.348Z,58.28
2024-03-05T09:35:52.408Z,52.75
2024-03-05T09:36:52.476Z,59.50
2024-03-05T09:37:52.613Z,61.87
2024-03-05T09:38:52.620Z,60.27
2024-03-05T09:39:52.681Z,64.49
2024-03-05T09:40:52.773Z,58.72
2024-03-05T09:41:52.818Z,60.99
2024-03-05T09:42:52.898Z,59.91
2024-03-05T09:43:54.030Z,60.91
2024-03-05T09:44:53.021Z,60.63
2024-03-05T09:45:53.100Z,62.83
2024-03-05T09:46:53.204Z,63.36
2024-03-05T09:47:53.262Z,54.17
2024-03-05T09:48:54.050Z,59.30
2024-03-05T09:49:53.460Z,62.38
2024-03-05T09:50:53.424Z,62.87
2024-03-05T09:51:53.494Z,56.54
2024-03-05T09:52:53.611Z,58.72
2024-03-05T09:53:53.646Z,55.88
2024-03-05T09:54:53.705Z,59.15
2024-03-05T09:55:53.822Z,51.59
2024-03-05T09:56:53.999Z,54.61
2024-03-05T09:57:53.909Z,53.42
2024-03-05T09:58:54.133Z,55.58
2024-03-05T09:59:54.053Z,51.01
2024-03-05T10:00:54.123Z,59.12
2024-03-05T10:01:54.337Z,50.00
2024-03-05T10:02:54.229Z,52.68
2024-03-05T10:03:54.315Z,54.22
2024-03-05T10:04:54.492Z,59.77
2024-03-05T10:05:54.579Z,60.70
2024-03-05T10:06:54.651Z,57.65
2024-03-05T10:07:54.645Z,52.24
2024-03-05T10:08:54.657Z,54.26
2024-03-05T10:09:54.731Z,53.86
2024-03-05T10:10:54.873Z,56.84
2024-03-05T10:11:54.968Z,58.81
2024-03-05T10:12:54.903Z,57.75
2024-03-05T10:13:55.020Z,54.11
2024-03-05T10:14:55.024Z,61.99
2024-03-05T10:15:55.099Z,59.23
2024-03-05T10:16:55.228Z,59.88
2024-03-05T10:17:55.753Z,56.92
2024-03-05T10:18:55.306Z,57.78
2024-03-05T10:19:55.492Z,55.48
2024-03-05T10:20:55.428Z,56.50
2024-03-05T10:21:55.510Z,58.91
2024-03-05T10:22:55.598Z,63.00
2024-03-05T10:23:55.769Z,57.03
2024-03-05T10:24:55.707Z,56.28
2024-03-05T10:25:55.803Z,60.90
2024-03-05T10:26:55.837Z,59.66
2024-03-05T10:27:55.915Z,59.42
2024-03-05T10:28:55.984Z,59.97
2024-03-05T10:29:56.031Z,58.48
2024-03-05T10:30:56.067Z,62.06
2024-03-05T10:31:56.187Z,59.56
2024-03-05T10:32:56.185Z,61.51
2024-03-05T10:33:56.260Z,62.24
2024-03-05T10:34:56.339Z,66.96
2024-03-05T10:35:56.397Z,62.45
2024-03-05T10:36:57.051Z,59.73
2024-03-05T10:37:56.572Z,60.41
2024-03-05T10:38:56.568Z,59.37
2024-03-05T10:39:56.814Z,64.64
2024-03-05T10:40:56.720Z,66.09
2024-03-05T10:41:56.772Z,63.11
2024-03-05T10:42:56.916Z,64.22
2024-03-05T10:43:56.937Z,63.86
2024-03-05T10:44:56.974Z,61.74
2024-03-05T10:45:57.020Z,62.27
2024-03-05T10:46:57.301Z,65.57
2024-03-05T10:47:57.254Z,64.98
2024-03-05T10:48:57.212Z,66.75
2024-03-05T10:49:57.324Z,63.84
2024-03-05T10:50:57.335Z,68.41
2024-03-05T10:51:57.405Z,66.46
2024-03-05T10:52:57.650Z,65.22
2024-03-05T10:53:57.557Z,67.10
2024-03-05T10:54:57.596Z,73.31
2024-03-05T10:55:57.708Z,73.44
2024-03-05T10:56:57.759Z,69.78
2024-03-05T10:57:57.819Z,67.34
2024-03-05T10:58:57.929Z,73.45
2024-03-05T10:59:57.950Z,76.27
2024-03-05T11:00:58.080Z,74.68
2024-03-05T11:01:58.108Z,76.81
2024-03-05T11:02:58.133Z,77.32
2024-03-05T11:03:58.212Z,72.71
2024-03-05T11:04:58.398Z,76.88
2024-03-05T11:05:58.352Z,75.34
2024-03-05T11:06:58.365Z,76.71
2024-03-05T11:11:00.473Z,79.06
2024-03-05T11:11:37.714Z,80.58
2024-03-05T11:12:37.540Z,87.51
2024-03-05T11:13:37.911Z,96.87
2024-03-05T11:14:37.539Z,110.37
2024-03-05T11:15:38.202Z,115.23
2024-03-05T11:16:37.595Z,124.24
2024-03-05T11:17:37.595Z,120.24
2024-03-05T11:18:37.580Z,117.34
2024-03-05T11:19:37.621Z,110.90
2024-03-05T11:20:37.566Z,111.56
2024-03-05T11:21:37.554Z,107.36
2024-03-05T11:22:37.576Z,103.92
2024-03-05T11:23:37.540Z,107.05
2024-03-05T11:24:37.554Z,111.87
2024-03-05T11:25:37.643Z,108.47
2024-03-05T11:26:37.706Z,110.85
2024-03-05T11:27:37.734Z,110.52
2024-03-05T11:28:38.174Z,106.47
2024-03-05T11:29:37.855Z,110.89
2024-03-05T11:30:37.909Z,115.40
2024-03-05T11:31:37.934Z,108.47
2024-03-05T11:32:38.016Z,108.69
2024-03-05T11:33:38.042Z,110.16
2024-03-05T11:34:38.175Z,112.38
2024-03-05T11:35:38.159Z,114.54
2024-03-05T11:36:38.229Z,113.17
2024-03-05T11:37:38.324Z,118.11
2024-03-05T11:38:38.366Z,117.47
2024-03-05T11:39:38.425Z,117.79
2024-03-05T11:40:38.552Z,123.89
2024-03-05T11:41:38.562Z,126.25
2024-03-05T11:42:38.623Z,118.72
2024-03-05T11:43:38.735Z,117.99
2024-03-05T11:44:38.767Z,122.53
2024-03-05T11:45:38.841Z,125.32
2024-03-05T11:46:39.046Z,121.91
2024-03-05T11:47:38.997Z,123.40
2024-03-05T11:48:39.055Z,122.47
2024-03-05T11:49:39.192Z,124.11
2024-03-05T11:50:39.185Z,126.33
2024-03-05T11:51:39.240Z,126.30
2024-03-05T11:52:39.325Z,125.29
2024-03-05T11:53:39.368Z,132.18
2024-03-05T11:54:39.440Z,127.93
2024-03-05T11:55:39.498Z,127.86
2024-03-05T11:56:39.568Z,132.43
2024-03-05T11:57:39.629Z,128.32
2024-03-05T11:58:39.792Z,126.91
2024-03-05T11:59:39.746Z,131.27
2024-03-05T12:00:39.834Z,133.09
2024-03-05T12:01:40.033Z,134.34
2024-03-05T12:02:40.140Z,130.34
2024-03-05T12:03:40.014Z,136.27
2024-03-05T12:04:40.244Z,146.34
2024-03-05T12:05:40.172Z,151.71
2024-03-05T12:06:40.315Z,160.51
2024-03-05T12:07:40.323Z,166.04
2024-03-05T12:08:40.371Z,170.08
2024-03-05T12:09:40.777Z,167.80
2024-03-05T12:10:40.556Z,178.27
2024-03-05T12:11:40.593Z,173.00
2024-03-05T12:12:40.619Z,179.11
2024-03-05T12:13:40.782Z,174.23
2024-03-05T12:14:40.763Z,185.51
2024-03-05T12:15:40.826Z,180.66
2024-03-05T12:16:40.958Z,184.06
2024-03-05T12:17:40.933Z,198.52
2024-03-05T12:18:41.005Z,200.00
2024-03-05T12:19:41.058Z,200.62
2024-03-05T12:20:41.085Z,195.37
2024-03-05T12:21:41.098Z,204.32
2024-03-05T12:22:41.277Z,198.04
2024-03-05T12:23:43.245Z,197.53
2024-03-05T12:24:41.387Z,197.30
2024-03-05T12:25:41.459Z,196.83
2024-03-05T12:26:41.433Z,194.20
2024-03-05T12:27:41.475Z,191.24
2024-03-05T12:28:41.622Z,186.97
2024-03-05T12:29:41.752Z,179.15
2024-03-05T12:30:41.638Z,170.43
2024-03-05T12:31:41.683Z,164.75
2024-03-05T12:32:41.735Z,161.74
2024-03-05T12:33:41.753Z,153.19
2024-03-05T12:34:41.813Z,143.18
2024-03-05T12:35:41.827Z,138.16
2024-03-05T12:36:41.857Z,123.38
2024-03-05T12:37:41.871Z,116.88
2024-03-05T12:38:41.934Z,110.59
2024-03-05T12:39:41.934Z,110.02
2024-03-05T12:40:42.075Z,106.36
2024-03-05T12:41:42.070Z,103.26
2024-03-05T12:42:42.076Z,101.25
2024-03-05T12:43:42.106Z,99.00
2024-03-05T12:44:42.102Z,96.40
2024-03-05T12:45:42.126Z,94.28